Main page
METAR-TAF:

METAR-TAF

Airports :

Cape Girardeau Regional Airport

Cape Girardeau, Missouri, United States

latitude: 37-13-32N, longitude: 089-34-42W, elevation: 341 ft

Current weather observation

The report was made 16 minutes ago, at 04:53 UTC
Calm wind
Temperature 73°F
Humidity 94%
Pressure 30.23 in. Hg
Visibility: 10 miles
Clear sky

METAR: KCGI 210453Z AUTO 00000KT 10SM CLR 23/22 A3023 RMK AO2 SLP232 T02280217

Time: 00:09 (05:09 UTC)

Forecast

The report was made 5 hours and 49 minutes ago, at 23:20 UTC
Forecast valid from 21 at 00 UTC to 21 at 24 UTC
Wind 0 mph from the North
Visibility: 6 miles
Few clouds at a height of 6000 ft
Temporary
from 21 at 09 UTC to 21 at 12 UTC
Visibility: 4 miles
mist
From 21 at 1500 UTC
Wind 6 mph from the South
Visibility: 6 miles
Scattered clouds at a height of 5000 ft

TAF: KCGI 202320Z 2100/2124 00000KT P6SM FEW060 TEMPO 2109/2112 4SM BR FM211500 17005KT P6SM SCT050

Weather observations and forecasts of more than 4000 airports (METAR and TAF reports).

The available stations are represented by yellow and red dots on the map.

Hover mouse over dot to see the name of the station.

Then click to see weather observations and forecasts.

To change the map : click on the green buttons with a black cross to zoom in, on the green button with a dash to zoom out, or on the green arrows for adjacent maps.


METAR-TAF: